createdAt,value
2018-12-29T00:01:13.499Z,28.47
2018-12-29T00:04:02.636Z,28.60
2018-12-29T00:06:51.791Z,28.23
2018-12-29T00:09:41.351Z,30.77
2018-12-29T00:12:30.470Z,30.27
2018-12-29T00:15:19.590Z,33.03
2018-12-29T00:18:09.101Z,33.43
2018-12-29T00:20:58.216Z,34.77
2018-12-29T00:23:47.318Z,34.37
2018-12-29T00:26:36.457Z,33.33
2018-12-29T00:29:25.938Z,32.83
2018-12-29T00:32:15.056Z,36.40
2018-12-29T00:35:04.323Z,33.87
2018-12-29T00:37:53.481Z,36.10
2018-12-29T00:40:42.915Z,37.37
2018-12-29T00:43:32.619Z,37.00
2018-12-29T00:46:22.062Z,38.00
2018-12-29T00:49:11.245Z,40.00
2018-12-29T00:52:19.927Z,37.60
2018-12-29T00:55:09.076Z,38.20
2018-12-29T00:57:58.250Z,39.97
2018-12-29T01:03:55.695Z,39.90
2018-12-29T01:06:45.366Z,40.23
2018-12-29T01:09:35.117Z,40.77
2018-12-29T01:12:24.232Z,40.77
2018-12-29T01:15:13.675Z,46.67
2018-12-29T01:18:03.137Z,40.53
2018-12-29T01:20:52.320Z,42.10
2018-12-29T01:23:41.417Z,41.43
2018-12-29T01:26:30.589Z,44.20
2018-12-29T01:29:19.711Z,42.63
2018-12-29T01:32:09.205Z,45.80
2018-12-29T01:34:58.317Z,43.40
2018-12-29T01:37:47.739Z,42.60
2018-12-29T01:40:37.195Z,42.73
2018-12-29T01:43:26.955Z,42.97
2018-12-29T01:46:16.663Z,39.17
2018-12-29T01:48:57.150Z,42.77
2018-12-29T01:51:47.061Z,39.30
2018-12-29T01:54:36.454Z,39.10
2018-12-29T01:57:25.820Z,37.60
2018-12-29T02:00:15.060Z,36.07
2018-12-29T02:03:04.453Z,37.93
2018-12-29T02:05:53.573Z,34.00
2018-12-29T02:08:43.016Z,37.00
2018-12-29T02:11:32.149Z,37.27
2018-12-29T02:14:21.784Z,36.40
2018-12-29T02:17:11.146Z,38.27
2018-12-29T02:20:20.369Z,39.20
2018-12-29T02:23:09.486Z,37.33
2018-12-29T02:25:58.681Z,39.47
2018-12-29T02:28:48.497Z,39.93
2018-12-29T02:31:37.892Z,38.70
2018-12-29T02:34:27.058Z,39.00
2018-12-29T02:37:16.170Z,33.37
2018-12-29T02:43:13.942Z,37.17
2018-12-29T02:46:03.345Z,34.60
2018-12-29T02:48:45.550Z,35.23
2018-12-29T02:51:34.919Z,35.03
2018-12-29T02:54:24.955Z,39.50
2018-12-29T02:57:14.345Z,36.83
2018-12-29T03:00:03.492Z,37.03
2018-12-29T03:02:52.665Z,34.37
2018-12-29T03:05:41.791Z,33.17
2018-12-29T03:08:30.945Z,36.47
2018-12-29T03:11:20.451Z,32.47
2018-12-29T03:14:10.162Z,35.37
2018-12-29T03:16:59.662Z,34.63
2018-12-29T03:19:49.257Z,33.70
2018-12-29T03:22:38.706Z,32.97
2018-12-29T03:25:28.089Z,34.00
2018-12-29T03:28:17.858Z,33.07
2018-12-29T03:31:07.246Z,36.53
2018-12-29T03:33:56.632Z,32.03
2018-12-29T03:36:45.738Z,35.13
2018-12-29T03:39:35.439Z,30.83
2018-12-29T03:42:24.946Z,32.90
2018-12-29T03:48:01.193Z,34.40
2018-12-29T03:50:50.313Z,33.10
2018-12-29T03:53:39.738Z,32.80
2018-12-29T03:56:29.205Z,31.40
2018-12-29T03:59:19.183Z,31.37
2018-12-29T04:02:08.701Z,32.20
2018-12-29T04:04:57.825Z,30.07
2018-12-29T04:07:46.982Z,30.10
2018-12-29T04:10:36.346Z,28.20
2018-12-29T04:13:25.469Z,27.00
2018-12-29T04:16:15.223Z,29.90
2018-12-29T04:19:04.572Z,26.93
2018-12-29T04:21:53.734Z,27.20
2018-12-29T04:24:43.448Z,26.37
2018-12-29T04:27:52.385Z,26.60
2018-12-29T04:30:41.531Z,24.70
2018-12-29T04:33:30.652Z,26.83
2018-12-29T04:36:19.823Z,27.03
2018-12-29T04:39:08.949Z,23.50
2018-12-29T04:41:58.097Z,23.90
2018-12-29T04:44:47.568Z,23.27
2018-12-29T04:47:36.694Z,24.57
2018-12-29T04:50:18.220Z,22.43
2018-12-29T04:53:07.734Z,23.33
2018-12-29T04:55:57.208Z,23.70
2018-12-29T04:58:46.614Z,23.80
2018-12-29T05:01:36.318Z,23.47
2018-12-29T05:04:25.831Z,23.67
2018-12-29T05:07:15.267Z,22.90
2018-12-29T05:10:11.432Z,23.20
2018-12-29T05:13:00.869Z,22.07
2018-12-29T05:15:50.661Z,21.67
2018-12-29T05:18:39.776Z,22.90
2018-12-29T05:21:29.188Z,25.30
2018-12-29T05:24:18.674Z,23.30
2018-12-29T05:27:07.780Z,22.30
2018-12-29T05:29:57.206Z,25.97
2018-12-29T05:32:46.561Z,24.00
2018-12-29T05:35:36.037Z,23.00
2018-12-29T05:38:25.528Z,24.30
2018-12-29T05:41:14.685Z,25.07
2018-12-29T05:44:03.841Z,24.43
2018-12-29T05:49:48.327Z,25.60
2018-12-29T05:52:37.475Z,25.67
2018-12-29T05:55:46.117Z,26.27
2018-12-29T05:58:54.757Z,27.50
2018-12-29T06:01:44.528Z,24.67
2018-12-29T06:04:33.673Z,25.93
2018-12-29T06:07:22.857Z,24.97
2018-12-29T06:10:11.970Z,27.50
2018-12-29T06:13:01.370Z,27.60
2018-12-29T06:15:51.176Z,25.17
2018-12-29T06:18:40.320Z,25.20
2018-12-29T06:21:29.455Z,28.20
2018-12-29T06:24:18.683Z,26.10
2018-12-29T06:27:07.809Z,28.30
2018-12-29T06:29:56.951Z,27.27
2018-12-29T06:32:46.083Z,26.40
2018-12-29T06:38:30.316Z,28.33
2018-12-29T06:41:19.821Z,27.27
2018-12-29T06:44:09.578Z,27.90
2018-12-29T06:46:58.687Z,29.07
2018-12-29T06:49:40.872Z,29.57
2018-12-29T06:52:29.999Z,30.00
2018-12-29T06:55:19.115Z,30.20
2018-12-29T06:58:08.239Z,29.33
2018-12-29T07:00:57.629Z,30.93
2018-12-29T07:03:47.410Z,33.00
2018-12-29T07:06:36.548Z,33.90
2018-12-29T07:09:26.258Z,30.70
2018-12-29T07:12:35.174Z,33.53
2018-12-29T07:15:24.304Z,34.10
2018-12-29T07:18:13.722Z,34.70
2018-12-29T07:24:11.411Z,31.50
2018-12-29T07:30:08.950Z,33.80
2018-12-29T07:32:58.354Z,33.23
2018-12-29T07:35:47.838Z,31.83
2018-12-29T07:41:45.023Z,33.73
2018-12-29T07:44:34.669Z,31.67
2018-12-29T07:47:24.047Z,31.93
2018-12-29T07:50:06.189Z,31.40
2018-12-29T07:52:55.553Z,31.50
2018-12-29T07:55:44.989Z,32.40
2018-12-29T07:58:34.112Z,31.10
2018-12-29T08:01:23.238Z,30.87
2018-12-29T08:04:13.066Z,32.00
2018-12-29T08:10:10.287Z,28.00
2018-12-29T08:12:59.650Z,28.23
2018-12-29T08:15:48.772Z,31.70
2018-12-29T08:18:38.180Z,28.77
2018-12-29T08:21:27.556Z,26.93
2018-12-29T08:24:16.681Z,27.83
2018-12-29T08:27:06.118Z,29.17
2018-12-29T08:29:55.514Z,29.80
2018-12-29T08:32:44.946Z,29.57
2018-12-29T08:35:34.076Z,29.10
2018-12-29T08:38:23.192Z,31.40
2018-12-29T08:41:12.311Z,27.73
2018-12-29T08:44:01.891Z,27.87
2018-12-29T08:46:51.292Z,29.57
2018-12-29T08:49:21.848Z,28.00
2018-12-29T08:51:51.758Z,28.87
2018-12-29T08:54:21.884Z,28.07
2018-12-29T08:56:51.789Z,26.37
2018-12-29T08:59:21.934Z,27.67
2018-12-29T09:01:52.180Z,26.20
2018-12-29T09:04:22.431Z,25.53
2018-12-29T09:06:52.325Z,23.23
2018-12-29T09:09:22.222Z,25.30
2018-12-29T09:11:55.060Z,25.43
2018-12-29T09:14:25.562Z,24.73
2018-12-29T09:16:55.512Z,22.67
2018-12-29T09:19:27.386Z,24.40
2018-12-29T09:21:57.876Z,24.70
2018-12-29T09:24:28.087Z,25.77
2018-12-29T09:26:57.975Z,23.63
2018-12-29T09:29:28.714Z,22.37
2018-12-29T09:31:58.965Z,23.53
2018-12-29T09:34:29.158Z,22.97
2018-12-29T09:36:59.053Z,23.00
2018-12-29T09:39:29.235Z,22.97
2018-12-29T09:41:59.160Z,25.10
2018-12-29T09:44:29.299Z,24.40
2018-12-29T09:46:59.769Z,24.00
2018-12-29T09:49:30.322Z,23.53
2018-12-29T09:52:00.192Z,23.50
2018-12-29T09:54:30.097Z,22.57
2018-12-29T09:57:00.663Z,20.30
2018-12-29T09:59:30.884Z,20.70
2018-12-29T10:02:01.088Z,21.50
2018-12-29T10:04:31.223Z,20.53
2018-12-29T10:07:01.189Z,19.50
2018-12-29T10:09:31.711Z,18.00
2018-12-29T10:12:01.601Z,20.10
2018-12-29T10:14:31.823Z,19.93
2018-12-29T10:17:02.024Z,19.20
2018-12-29T10:19:32.568Z,21.80
2018-12-29T10:22:02.819Z,21.57
2018-12-29T10:24:33.522Z,19.50
2018-12-29T10:27:03.438Z,20.80
2018-12-29T10:29:33.994Z,17.90
2018-12-29T10:32:04.079Z,18.57
2018-12-29T10:34:33.970Z,18.33
2018-12-29T10:37:04.212Z,18.50
2018-12-29T10:39:34.073Z,17.33
2018-12-29T10:42:04.234Z,18.10
2018-12-29T10:44:34.153Z,18.47
2018-12-29T10:47:04.589Z,18.50
2018-12-29T10:49:34.492Z,16.00
2018-12-29T10:52:16.913Z,16.17
2018-12-29T10:55:06.167Z,17.30
2018-12-29T10:57:36.073Z,16.70
2018-12-29T11:00:08.135Z,15.80
2018-12-29T11:02:38.387Z,15.23
2018-12-29T11:05:09.135Z,14.60
2018-12-29T11:07:39.337Z,13.53
2018-12-29T11:10:09.320Z,14.20
2018-12-29T11:12:39.179Z,13.13
2018-12-29T11:15:09.120Z,11.90
2018-12-29T11:17:42.479Z,11.93
2018-12-29T11:20:11.588Z,11.67
2018-12-29T11:22:41.827Z,11.10
2018-12-29T11:25:12.668Z,12.40
2018-12-29T11:27:42.574Z,11.50
2018-12-29T11:30:12.468Z,10.70
2018-12-29T11:32:42.780Z,10.83
2018-12-29T11:35:12.916Z,10.00
2018-12-29T11:37:44.100Z,11.80
2018-12-29T11:40:14.037Z,11.10
2018-12-29T11:42:44.288Z,11.00
2018-12-29T11:45:14.543Z,8.90
2018-12-29T11:47:49.811Z,9.10
2018-12-29T11:50:16.749Z,9.33
2018-12-29T11:52:46.922Z,8.00
2018-12-29T11:55:17.470Z,8.60
2018-12-29T11:57:47.673Z,7.73
2018-12-29T12:00:17.943Z,6.60
2018-12-29T12:02:47.835Z,7.50
2018-12-29T12:05:17.776Z,7.03
2018-12-29T12:07:48.449Z,7.00
2018-12-29T12:10:18.339Z,7.93
2018-12-29T12:12:48.605Z,7.30
2018-12-29T12:15:18.484Z,7.17
2018-12-29T12:17:48.499Z,7.23
2018-12-29T12:20:18.735Z,6.87
2018-12-29T12:22:49.699Z,8.40
2018-12-29T12:25:19.852Z,6.43
2018-12-29T12:27:50.386Z,6.67
2018-12-29T12:30:20.564Z,6.30
2018-12-29T12:32:50.978Z,6.27
2018-12-29T12:35:21.314Z,6.37
2018-12-29T12:37:51.762Z,6.20
2018-12-29T12:40:21.687Z,5.80
2018-12-29T12:42:52.351Z,6.00
2018-12-29T12:45:22.597Z,5.97
2018-12-29T12:47:52.826Z,5.40
2018-12-29T12:50:23.050Z,6.27
2018-12-29T12:52:53.167Z,5.57
2018-12-29T12:55:23.466Z,5.57
2018-12-29T12:57:53.522Z,5.87
2018-12-29T13:00:23.942Z,5.93
2018-12-29T13:02:54.460Z,6.97
2018-12-29T13:05:24.359Z,6.23
2018-12-29T13:07:54.518Z,6.17
2018-12-29T13:10:25.056Z,6.40
2018-12-29T13:12:54.918Z,7.70
2018-12-29T13:15:25.024Z,7.07
2018-12-29T13:17:55.154Z,6.70
2018-12-29T13:20:25.364Z,6.30
2018-12-29T13:22:55.593Z,6.13
2018-12-29T13:25:26.166Z,7.40
2018-12-29T13:27:57.025Z,5.73
2018-12-29T13:30:27.525Z,6.60
2018-12-29T13:32:57.483Z,6.13
2018-12-29T13:35:27.775Z,5.67
2018-12-29T13:37:58.043Z,5.37
2018-12-29T13:40:27.974Z,5.30
2018-12-29T13:42:58.127Z,4.37
2018-12-29T13:45:28.027Z,4.27
2018-12-29T13:47:58.240Z,4.07
2018-12-29T13:50:28.398Z,4.13
2018-12-29T13:52:58.302Z,5.00
2018-12-29T13:55:28.201Z,5.07
2018-12-29T13:57:58.407Z,4.50
2018-12-29T14:00:28.613Z,5.57
2018-12-29T14:02:58.499Z,6.17
2018-12-29T14:05:28.507Z,5.30
2018-12-29T14:07:58.679Z,5.93
2018-12-29T14:10:28.856Z,5.90
2018-12-29T14:12:58.722Z,5.80
2018-12-29T14:15:28.959Z,6.23
2018-12-29T14:17:58.872Z,6.47
2018-12-29T14:20:29.092Z,6.77
2018-12-29T14:22:59.310Z,6.53
2018-12-29T14:25:29.566Z,6.20
2018-12-29T14:28:00.063Z,6.87
2018-12-29T14:30:30.294Z,7.57
2018-12-29T14:33:00.504Z,7.33
2018-12-29T14:35:30.379Z,7.13
2018-12-29T14:38:00.657Z,6.83
2018-12-29T14:40:31.007Z,8.10
2018-12-29T14:43:01.116Z,8.07
2018-12-29T14:45:30.982Z,8.07
2018-12-29T14:48:01.227Z,8.17
2018-12-29T14:50:31.118Z,7.50
2018-12-29T14:53:01.064Z,7.97
2018-12-29T14:55:31.299Z,8.50
2018-12-29T14:58:01.782Z,8.67
2018-12-29T15:00:32.340Z,8.27
2018-12-29T15:03:02.542Z,7.60
2018-12-29T15:05:32.458Z,7.50
2018-12-29T15:08:03.393Z,7.00
2018-12-29T15:10:33.568Z,6.67
2018-12-29T15:13:03.451Z,7.73
2018-12-29T15:15:33.656Z,7.90
2018-12-29T15:18:03.828Z,9.63
2018-12-29T15:20:34.574Z,8.00
2018-12-29T15:23:04.744Z,8.17
2018-12-29T15:25:34.977Z,9.47
2018-12-29T15:28:05.500Z,8.50
2018-12-29T15:30:36.018Z,8.40
2018-12-29T15:33:05.988Z,9.53
2018-12-29T15:35:36.278Z,9.00
2018-12-29T15:38:06.545Z,11.00
2018-12-29T15:40:36.590Z,10.07
2018-12-29T15:43:06.852Z,8.93
2018-12-29T15:45:37.469Z,11.10
2018-12-29T15:48:07.554Z,9.70
2018-12-29T15:50:37.535Z,11.57
2018-12-29T15:53:08.363Z,12.00
2018-12-29T15:55:38.726Z,11.80
2018-12-29T16:01:56.862Z,14.53
2018-12-29T16:04:27.122Z,13.53
2018-12-29T16:06:57.372Z,11.33
2018-12-29T16:09:27.916Z,11.90
2018-12-29T16:11:58.352Z,11.43
2018-12-29T16:14:35.249Z,14.20
2018-12-29T16:16:59.853Z,14.47
2018-12-29T16:19:29.997Z,13.20
2018-12-29T16:21:59.905Z,16.30
2018-12-29T16:24:30.145Z,16.50
2018-12-29T16:27:00.673Z,16.60
2018-12-29T16:29:30.815Z,17.93
2018-12-29T16:32:01.062Z,18.50
2018-12-29T16:34:31.045Z,18.70
2018-12-29T16:37:00.983Z,18.97
2018-12-29T16:39:31.883Z,18.07
2018-12-29T16:42:01.820Z,19.50
2018-12-29T16:44:31.707Z,20.37
2018-12-29T16:47:01.837Z,22.67
2018-12-29T16:49:32.125Z,22.73
2018-12-29T16:52:02.028Z,18.80
2018-12-29T16:54:32.297Z,20.00
2018-12-29T16:57:02.193Z,21.70
2018-12-29T16:59:34.695Z,20.20
2018-12-29T17:02:04.880Z,20.40
2018-12-29T17:04:34.829Z,20.57
2018-12-29T17:07:05.057Z,21.90
2018-12-29T17:09:35.315Z,19.17
2018-12-29T17:12:06.025Z,19.77
2018-12-29T17:14:36.754Z,19.37
2018-12-29T17:17:06.623Z,19.07
2018-12-29T17:19:36.922Z,20.20
2018-12-29T17:22:06.852Z,18.43
2018-12-29T17:24:36.756Z,19.37
2018-12-29T17:27:06.949Z,17.43
2018-12-29T17:29:37.255Z,18.00
2018-12-29T17:32:07.473Z,17.40
2018-12-29T17:34:37.403Z,18.13
2018-12-29T17:37:07.324Z,17.40
2018-12-29T17:39:38.374Z,18.33
2018-12-29T17:42:08.469Z,19.90
2018-12-29T17:44:38.667Z,20.70
2018-12-29T17:47:08.749Z,22.20
2018-12-29T17:49:38.907Z,23.27
2018-12-29T17:52:09.154Z,20.13
2018-12-29T17:54:39.349Z,22.37
2018-12-29T17:57:09.203Z,21.53
2018-12-29T17:59:39.077Z,21.97
2018-12-29T18:02:09.642Z,21.20
2018-12-29T18:04:39.787Z,19.27
2018-12-29T18:07:09.664Z,19.00
2018-12-29T18:09:39.577Z,19.07
2018-12-29T18:12:09.536Z,19.50
2018-12-29T18:14:39.394Z,19.03
2018-12-29T18:17:09.488Z,18.00
2018-12-29T18:19:40.578Z,18.50
2018-12-29T18:22:11.109Z,19.17
2018-12-29T18:24:41.409Z,15.00
2018-12-29T18:27:11.866Z,13.17
2018-12-29T18:29:42.132Z,13.73
2018-12-29T18:32:12.397Z,11.57
2018-12-29T18:34:42.976Z,13.10
2018-12-29T18:37:15.427Z,9.73
2018-12-29T18:39:45.204Z,9.30
2018-12-29T18:42:15.357Z,8.60
2018-12-29T18:44:45.696Z,8.63
2018-12-29T18:47:19.760Z,9.00
2018-12-29T18:49:50.109Z,8.57
2018-12-29T18:52:20.141Z,7.63
2018-12-29T18:54:50.439Z,7.07
2018-12-29T18:57:20.964Z,5.53
2018-12-29T18:59:51.087Z,4.80
2018-12-29T19:02:21.711Z,4.43
2018-12-29T19:04:52.365Z,3.50
2018-12-29T19:07:22.796Z,3.40
2018-12-29T19:09:52.948Z,2.83
2018-12-29T19:12:22.928Z,2.23
2018-12-29T19:14:53.528Z,1.73
2018-12-29T19:17:23.487Z,1.80
2018-12-29T19:19:54.950Z,2.20
2018-12-29T19:22:25.012Z,1.90
2018-12-29T19:24:55.634Z,2.30
2018-12-29T19:27:25.521Z,2.00
2018-12-29T19:29:55.484Z,2.80
2018-12-29T19:32:26.346Z,2.23
2018-12-29T19:34:56.869Z,2.67
2018-12-29T19:37:33.814Z,1.80
2018-12-29T19:40:03.997Z,1.97
2018-12-29T19:42:35.347Z,1.90
2018-12-29T19:45:05.719Z,2.03
2018-12-29T19:47:35.784Z,1.93
2018-12-29T19:50:06.883Z,1.70
2018-12-29T19:52:37.435Z,1.80
2018-12-29T19:55:07.529Z,1.70
2018-12-29T19:57:37.763Z,1.63
2018-12-29T20:00:10.493Z,1.77
2018-12-29T20:02:40.717Z,1.60
2018-12-29T20:05:11.697Z,1.87
2018-12-29T20:07:41.702Z,1.60
2018-12-29T20:10:12.101Z,1.90
2018-12-29T20:12:42.404Z,2.20
2018-12-29T20:15:12.662Z,1.70
2018-12-29T20:17:42.631Z,2.40
2018-12-29T20:20:12.606Z,2.20
2018-12-29T20:22:42.523Z,2.10
2018-12-29T20:25:12.764Z,1.77
2018-12-29T20:27:42.678Z,1.80
2018-12-29T20:30:12.685Z,1.63
2018-12-29T20:32:42.806Z,2.00
2018-12-29T20:35:12.884Z,1.93
2018-12-29T20:37:43.359Z,2.03
2018-12-29T20:40:14.212Z,1.87
2018-12-29T20:42:44.465Z,1.70
2018-12-29T20:45:14.758Z,2.07
2018-12-29T20:47:44.832Z,2.37
2018-12-29T20:50:15.069Z,2.37
2018-12-29T20:52:45.180Z,2.13
2018-12-29T20:55:15.427Z,1.73
2018-12-29T20:57:45.603Z,2.17
2018-12-29T21:00:15.860Z,2.40
2018-12-29T21:02:46.004Z,2.00
2018-12-29T21:05:16.853Z,2.03
2018-12-29T21:07:46.799Z,2.27
2018-12-29T21:10:17.402Z,1.93
2018-12-29T21:12:47.711Z,1.77
2018-12-29T21:15:18.147Z,1.90
2018-12-29T21:17:48.147Z,2.60
2018-12-29T21:20:18.498Z,2.17
2018-12-29T21:22:48.674Z,2.33
2018-12-29T21:25:20.192Z,1.83
2018-12-29T21:27:50.393Z,1.30
2018-12-29T21:30:20.805Z,1.93
2018-12-29T21:32:51.422Z,1.30
2018-12-29T21:35:22.712Z,1.90
2018-12-29T21:37:52.985Z,1.60
2018-12-29T21:40:22.905Z,1.40
2018-12-29T21:42:54.368Z,1.50
2018-12-29T21:45:24.509Z,1.60
2018-12-29T21:47:54.811Z,1.50
2018-12-29T21:50:25.789Z,1.80
2018-12-29T21:52:57.699Z,1.20
2018-12-29T21:55:28.129Z,1.60
2018-12-29T21:57:59.626Z,1.53
2018-12-29T22:00:29.481Z,1.73
2018-12-29T22:02:59.393Z,1.70
2018-12-29T22:05:29.673Z,1.60
2018-12-29T22:07:59.706Z,2.20
2018-12-29T22:10:30.012Z,2.13
2018-12-29T22:13:01.451Z,2.10
2018-12-29T22:15:33.950Z,3.03
2018-12-29T22:18:04.215Z,3.00
2018-12-29T22:20:35.245Z,3.83
2018-12-29T22:23:05.551Z,4.90
2018-12-29T22:25:35.782Z,7.07
2018-12-29T22:28:05.659Z,9.80
2018-12-29T22:30:35.838Z,10.37
2018-12-29T22:33:05.884Z,11.00
2018-12-29T22:35:35.924Z,12.00
2018-12-29T22:38:06.183Z,12.97
2018-12-29T22:40:36.768Z,12.40
2018-12-29T22:43:08.288Z,12.30
2018-12-29T22:45:38.263Z,12.30
2018-12-29T22:48:08.145Z,11.93
2018-12-29T22:50:41.172Z,11.83
2018-12-29T22:53:10.400Z,11.00
2018-12-29T22:55:40.928Z,11.27
2018-12-29T22:58:11.250Z,14.20
2018-12-29T23:00:42.664Z,11.50
2018-12-29T23:03:13.535Z,12.20
2018-12-29T23:05:43.432Z,11.57
2018-12-29T23:08:13.997Z,11.67
2018-12-29T23:10:43.912Z,11.70
2018-12-29T23:13:14.135Z,11.97
2018-12-29T23:15:44.105Z,10.00
2018-12-29T23:18:14.774Z,9.97
2018-12-29T23:20:49.110Z,8.33
2018-12-29T23:23:17.250Z,7.10
2018-12-29T23:25:49.728Z,6.90
2018-12-29T23:28:19.962Z,4.00
2018-12-29T23:30:49.867Z,3.70
2018-12-29T23:33:20.491Z,2.63
2018-12-29T23:35:50.420Z,2.43
2018-12-29T23:38:20.965Z,1.63
2018-12-29T23:40:50.849Z,1.20
2018-12-29T23:43:24.360Z,1.10
2018-12-29T23:45:54.989Z,1.00
2018-12-29T23:48:25.249Z,0.80
2018-12-29T23:51:05.231Z,1.00
2018-12-29T23:53:27.043Z,1.13
2018-12-29T23:55:57.727Z,0.93
2018-12-29T23:58:27.645Z,1.40
